»·PEaware :: N15JG KSMX-KBFL

N15JG :: KSMX-KBFL

FLIGHT INFORMATION

Flight Status: Arrived
Operator: Privately registered:
United States
More flights under this callsign
Pilot: Anonymous 11047 (11047)
Aircraft: CESSNA 172 SKYHAWK
(C172)
More flights by this aircraft type
Origin: KSMX Santa Maria Pub/Capt Hancock
United States
Destination: KBFL Meadows
United States
More flights between these airports :: More routes between these airports
Route: +
File this flight plan on PilotEdge
Remarks: C5
Altitude:
(Current/Filed)
0ft
Speed:
(Current/Filed)
0kts
Departed: 27-Nov-16 09:57 AM
Arrived: 27-Nov-16 10:39 AM
Distance/Time
Traveled:
76nm/0:42
Distance/Time
To Go:
Arrived

Flight Plot

Page will automatically refresh every two minutes.


Map Options




Map Legend


Flown Route
Filed Route
Departure Airport
Arrival Airport
Navaid (VOR, NDB)
Fix

Horizontal Profiles

Position Reports

Time Latitude Longitude Heading Altitude Ground
Speed
27-Nov-16 09:46 34.894870 -120.445155 226 264ft 0kts
27-Nov-16 09:47 34.894672 -120.445376 184 264ft 5kts
27-Nov-16 09:48 34.893459 -120.445273 186 264ft 0kts
27-Nov-16 09:49 34.893293 -120.445293 188 264ft 8kts
27-Nov-16 09:50 34.900428 -120.454788 312 393ft 81kts
27-Nov-16 09:51 34.918884 -120.470345 0 1032ft 93kts
27-Nov-16 09:52 34.925795 -120.440674 128 1233ft 132kts
27-Nov-16 09:53 34.913975 -120.404002 93 1803ft 121kts
27-Nov-16 09:54 34.922134 -120.365560 59 2298ft 113kts
27-Nov-16 09:55 34.933214 -120.326870 64 2662ft 123kts
27-Nov-16 09:56 34.945809 -120.286999 58 2979ft 127kts
27-Nov-16 09:57 34.961164 -120.249227 52 3376ft 124kts
27-Nov-16 09:58 34.977461 -120.212194 49 3718ft 124kts
27-Nov-16 09:59 34.993009 -120.174384 51 4045ft 124kts
27-Nov-16 10:00 35.010332 -120.138659 43 4345ft 120kts
27-Nov-16 10:01 35.028611 -120.102455 55 4511ft 126kts
27-Nov-16 10:02 35.043050 -120.067028 62 4791ft 116kts
27-Nov-16 10:03 35.059514 -120.031273 65 4745ft 122kts
27-Nov-16 10:04 35.072354 -119.989161 64 4674ft 137kts
27-Nov-16 10:05 35.085446 -119.946408 59 4801ft 124kts
27-Nov-16 10:06 35.101831 -119.909177 62 4862ft 121kts
27-Nov-16 10:07 35.114459 -119.870063 72 4752ft 128kts
27-Nov-16 10:08 35.125729 -119.827830 71 4409ft 129kts
27-Nov-16 10:09 35.131942 -119.784419 79 4081ft 130kts
27-Nov-16 10:10 35.141894 -119.741781 62 3859ft 141kts
27-Nov-16 10:11 35.161283 -119.702428 36 3959ft 122kts
27-Nov-16 10:12 35.185927 -119.672696 53 3988ft 132kts
27-Nov-16 10:13 35.205274 -119.631955 66 3374ft 140kts
27-Nov-16 10:14 35.220878 -119.585578 62 2977ft 142kts
27-Nov-16 10:15 35.238868 -119.544050 55 2645ft 134kts
27-Nov-16 10:16 35.257436 -119.505138 55 2453ft 124kts
27-Nov-16 10:17 35.274436 -119.468863 54 2376ft 132kts
27-Nov-16 10:18 35.295175 -119.429901 50 1999ft 133kts
27-Nov-16 10:19 35.314495 -119.400318 50 1694ft 127kts
27-Nov-16 10:20 35.324600 -119.353115 78 1606ft 120kts
27-Nov-16 10:21 35.332252 -119.319856 61 1466ft 123kts
27-Nov-16 10:22 35.344785 -119.283332 60 1361ft 119kts
27-Nov-16 10:23 35.358998 -119.248663 60 1490ft 110kts
27-Nov-16 10:24 35.373745 -119.207602 58 1544ft 116kts
27-Nov-16 10:25 35.385087 -119.176731 72 1533ft 119kts
27-Nov-16 10:26 35.376335 -119.135879 104 1541ft 121kts
27-Nov-16 10:27 35.367007 -119.094974 100 1478ft 124kts
27-Nov-16 10:28 35.373637 -119.059050 40 1502ft 104kts
27-Nov-16 10:29 35.392723 -119.039686 25 1492ft 72kts
27-Nov-16 10:30 35.412080 -119.032508 341 1026ft 77kts
27-Nov-16 10:31 35.426191 -119.046954 315 716ft 62kts
27-Nov-16 10:32 35.436885 -119.059910 316 512ft 40kts
27-Nov-16 10:33 35.439635 -119.060923 132 510ft 26kts
27-Nov-16 10:34 35.431176 -119.050720 137 510ft 46kts
27-Nov-16 10:35 35.429295 -119.047192 316 510ft 11kts
27-Nov-16 10:36 35.429797 -119.046878 133 510ft 0kts

Navigation Log

Ident Type
1. KSMX Airport
2. KBFL Airport